createdAt,value
2022-10-09T00:00:46.697Z,98.81
2022-10-09T00:03:14.717Z,99.19
2022-10-09T00:05:41.626Z,99.00
2022-10-09T00:08:08.264Z,99.03
2022-10-09T00:10:34.781Z,99.03
2022-10-09T00:13:01.292Z,98.94
2022-10-09T00:15:27.801Z,98.67
2022-10-09T00:17:54.372Z,98.54
2022-10-09T00:20:20.888Z,98.39
2022-10-09T00:22:48.031Z,98.87
2022-10-09T00:25:14.681Z,98.11
2022-10-09T00:27:41.204Z,98.60
2022-10-09T00:30:08.362Z,98.22
2022-10-09T00:32:34.972Z,97.82
2022-10-09T00:35:01.550Z,97.86
2022-10-09T00:37:28.509Z,96.78
2022-10-09T00:39:55.010Z,95.28
2022-10-09T00:42:21.563Z,93.48
2022-10-09T00:44:51.639Z,91.41
2022-10-09T00:47:27.351Z,92.20
2022-10-09T00:49:59.053Z,88.62
2022-10-09T00:52:26.442Z,86.94
2022-10-09T00:54:54.595Z,88.31
2022-10-09T00:57:25.300Z,89.69
2022-10-09T00:59:51.919Z,90.28
2022-10-09T01:02:18.912Z,90.19
2022-10-09T01:04:45.525Z,92.22
2022-10-09T01:07:27.362Z,93.75
2022-10-09T01:10:22.597Z,93.94
2022-10-09T01:13:06.601Z,95.07
2022-10-09T01:15:44.421Z,95.52
2022-10-09T01:18:35.951Z,95.44
2022-10-09T01:21:08.689Z,96.98
2022-10-09T01:23:59.752Z,97.41
2022-10-09T01:26:45.461Z,96.67
2022-10-09T01:29:14.671Z,95.03
2022-10-09T01:31:44.827Z,94.77
2022-10-09T01:34:14.694Z,94.00
2022-10-09T01:36:44.013Z,96.52
2022-10-09T01:39:15.636Z,99.21
2022-10-09T01:41:43.660Z,98.98
2022-10-09T01:44:24.541Z,97.50
2022-10-09T01:49:49.311Z,95.03
2022-10-09T01:52:25.658Z,96.27
2022-10-09T01:55:26.737Z,97.24
2022-10-09T01:58:05.547Z,98.36
2022-10-09T02:00:37.111Z,94.65
2022-10-09T02:03:07.767Z,94.57
2022-10-09T02:05:34.638Z,98.92
2022-10-09T02:08:01.373Z,98.98
2022-10-09T02:10:28.676Z,94.51
2022-10-09T02:12:59.666Z,93.45
2022-10-09T02:15:46.964Z,94.66
2022-10-09T02:18:15.512Z,94.55
2022-10-09T02:20:50.834Z,94.34
2022-10-09T02:23:19.706Z,96.26
2022-10-09T02:25:46.601Z,94.44
2022-10-09T02:28:13.185Z,93.90
2022-10-09T02:30:51.184Z,96.09
2022-10-09T02:33:17.676Z,97.02
2022-10-09T02:35:44.841Z,98.24
2022-10-09T02:38:11.348Z,99.21
2022-10-09T02:40:37.813Z,97.28
2022-10-09T02:43:04.762Z,96.92
2022-10-09T02:45:31.271Z,96.51
2022-10-09T02:47:57.765Z,94.12
2022-10-09T02:50:24.333Z,93.29
2022-10-09T02:52:51.170Z,93.68
2022-10-09T02:55:17.927Z,93.69
2022-10-09T02:57:44.431Z,94.23
2022-10-09T03:00:11.678Z,95.14
2022-10-09T03:02:38.335Z,96.21
2022-10-09T03:05:05.256Z,96.56
2022-10-09T03:07:31.835Z,96.76
2022-10-09T03:09:58.808Z,96.91
2022-10-09T03:12:25.289Z,98.06
2022-10-09T03:14:51.811Z,95.58
2022-10-09T03:17:18.317Z,92.05
2022-10-09T03:19:44.937Z,91.12
2022-10-09T03:22:11.475Z,90.65
2022-10-09T03:24:37.956Z,90.95
2022-10-09T03:27:04.620Z,93.27
2022-10-09T03:29:31.308Z,94.24
2022-10-09T03:31:57.834Z,92.86
2022-10-09T03:34:24.349Z,92.96
2022-10-09T03:36:50.889Z,93.07
2022-10-09T03:39:17.489Z,91.80
2022-10-09T03:41:44.003Z,90.19
2022-10-09T03:44:10.688Z,89.70
2022-10-09T03:46:37.283Z,89.97
2022-10-09T03:49:03.880Z,92.64
2022-10-09T03:51:30.416Z,93.84
2022-10-09T03:53:56.900Z,95.35
2022-10-09T03:56:23.398Z,97.54
2022-10-09T03:58:49.932Z,99.12
2022-10-09T04:01:16.466Z,100.00
2022-10-09T04:03:43.038Z,100.00
2022-10-09T04:06:09.604Z,99.38
2022-10-09T04:08:36.112Z,96.52
2022-10-09T04:11:03.548Z,100.00
2022-10-09T04:13:30.109Z,100.00
2022-10-09T04:15:56.758Z,100.00
2022-10-09T04:18:23.804Z,100.00
2022-10-09T04:20:55.550Z,100.00
2022-10-09T04:23:25.151Z,100.00
2022-10-09T04:25:56.081Z,100.00
2022-10-09T04:28:23.529Z,100.00
2022-10-09T04:30:50.413Z,100.00
2022-10-09T04:33:16.920Z,100.00
2022-10-09T04:35:50.044Z,100.00
2022-10-09T04:38:16.731Z,100.00
2022-10-09T04:40:43.249Z,100.00
2022-10-09T04:43:10.039Z,100.00
2022-10-09T04:45:40.594Z,100.00
2022-10-09T04:48:07.084Z,100.00
2022-10-09T04:50:33.600Z,100.00
2022-10-09T04:53:00.162Z,100.00
2022-10-09T04:55:26.719Z,100.00
2022-10-09T04:57:53.360Z,100.00
2022-10-09T05:00:19.864Z,100.00
2022-10-09T05:02:46.698Z,100.00
2022-10-09T05:05:13.672Z,100.00
2022-10-09T05:07:40.177Z,100.00
2022-10-09T05:10:07.384Z,100.00
2022-10-09T05:12:34.493Z,100.00
2022-10-09T05:15:00.973Z,100.00
2022-10-09T05:17:27.970Z,100.00
2022-10-09T05:19:54.546Z,100.00
2022-10-09T05:22:21.093Z,100.00
2022-10-09T05:24:47.826Z,100.00
2022-10-09T05:27:14.302Z,100.00
2022-10-09T05:29:40.816Z,100.00
2022-10-09T05:32:07.572Z,99.66
2022-10-09T05:34:38.704Z,99.42
2022-10-09T05:37:08.408Z,99.06
2022-10-09T05:39:36.048Z,97.75
2022-10-09T05:42:02.608Z,98.47
2022-10-09T05:44:29.092Z,100.00
2022-10-09T05:46:55.661Z,100.00
2022-10-09T05:49:22.376Z,100.00
2022-10-09T05:51:49.971Z,99.88
2022-10-09T05:54:18.079Z,100.00
2022-10-09T05:56:45.683Z,100.00
2022-10-09T05:59:19.788Z,100.00
2022-10-09T06:01:51.805Z,100.00
2022-10-09T06:04:23.512Z,100.00
2022-10-09T06:06:50.427Z,100.00
2022-10-09T06:09:23.174Z,100.00
2022-10-09T06:11:51.025Z,100.00
2022-10-09T06:14:17.825Z,100.00
2022-10-09T06:16:45.520Z,100.00
2022-10-09T06:19:14.392Z,100.00
2022-10-09T06:21:41.424Z,100.00
2022-10-09T06:24:11.087Z,100.00
2022-10-09T06:26:37.907Z,100.00
2022-10-09T06:29:04.392Z,100.00
2022-10-09T06:31:32.804Z,100.00
2022-10-09T06:34:00.983Z,100.00
2022-10-09T06:36:30.113Z,99.61
2022-10-09T06:38:58.645Z,99.38
2022-10-09T06:41:27.308Z,99.41
2022-10-09T06:43:55.269Z,100.00
2022-10-09T06:46:25.288Z,100.00
2022-10-09T06:48:52.268Z,100.00
2022-10-09T06:51:24.552Z,100.00
2022-10-09T06:53:53.517Z,100.00
2022-10-09T06:56:21.803Z,100.00
2022-10-09T06:58:49.843Z,100.00
2022-10-09T07:01:24.514Z,100.00
2022-10-09T07:03:56.679Z,100.00
2022-10-09T07:06:29.393Z,100.00
2022-10-09T07:09:05.861Z,100.00
2022-10-09T07:11:35.545Z,100.00
2022-10-09T07:14:05.275Z,100.00
2022-10-09T07:16:42.904Z,100.00
2022-10-09T07:19:12.298Z,100.00
2022-10-09T07:21:46.470Z,97.98
2022-10-09T07:24:13.453Z,97.68
2022-10-09T07:26:45.464Z,96.56
2022-10-09T07:29:14.411Z,96.16
2022-10-09T07:31:45.135Z,93.02
2022-10-09T07:34:14.518Z,91.15
2022-10-09T07:36:44.813Z,88.99
2022-10-09T07:39:11.953Z,84.74
2022-10-09T07:41:38.460Z,82.86
2022-10-09T07:44:05.028Z,81.49
2022-10-09T07:46:34.041Z,79.34
2022-10-09T07:49:01.954Z,79.47
2022-10-09T07:51:29.596Z,76.76
2022-10-09T07:53:57.362Z,76.21
2022-10-09T07:56:28.096Z,74.41
2022-10-09T07:58:57.562Z,74.35
2022-10-09T08:01:27.531Z,72.31
2022-10-09T08:03:54.365Z,71.46
2022-10-09T08:06:21.065Z,69.52
2022-10-09T08:08:55.606Z,70.04
2022-10-09T08:11:31.046Z,69.64
2022-10-09T08:13:58.145Z,66.77
2022-10-09T08:16:26.508Z,66.84
2022-10-09T08:19:00.600Z,65.99
2022-10-09T08:21:28.550Z,67.08
2022-10-09T08:23:59.297Z,66.42
2022-10-09T08:26:28.350Z,64.46
2022-10-09T08:29:02.996Z,61.76
2022-10-09T08:31:31.679Z,60.22
2022-10-09T08:34:00.292Z,61.29
2022-10-09T08:36:27.580Z,59.55
2022-10-09T08:38:55.300Z,57.47
2022-10-09T08:41:37.337Z,57.13
2022-10-09T08:44:14.640Z,59.86
2022-10-09T08:46:57.628Z,57.92
2022-10-09T08:49:34.958Z,55.51
2022-10-09T08:52:16.910Z,55.31
2022-10-09T08:54:43.955Z,57.09
2022-10-09T08:57:16.501Z,56.57
2022-10-09T08:59:44.139Z,53.95
2022-10-09T09:02:20.817Z,53.12
2022-10-09T09:04:54.972Z,52.43
2022-10-09T09:07:21.556Z,54.27
2022-10-09T09:10:00.392Z,54.15
2022-10-09T09:12:43.022Z,54.44
2022-10-09T09:15:22.096Z,54.85
2022-10-09T09:17:48.636Z,53.06
2022-10-09T09:20:20.191Z,52.86
2022-10-09T09:22:49.623Z,52.52
2022-10-09T09:25:21.172Z,49.16
2022-10-09T09:27:48.656Z,50.72
2022-10-09T09:30:27.226Z,48.00
2022-10-09T09:33:23.388Z,48.27
2022-10-09T09:36:11.695Z,49.14
2022-10-09T09:38:48.053Z,48.31
2022-10-09T09:41:25.185Z,46.34
2022-10-09T09:43:51.770Z,48.13
2022-10-09T09:46:22.535Z,47.62
2022-10-09T09:48:50.418Z,47.33
2022-10-09T09:51:29.160Z,48.60
2022-10-09T09:53:59.741Z,48.19
2022-10-09T09:57:10.338Z,49.96
2022-10-09T09:59:35.866Z,48.41
2022-10-09T10:02:22.723Z,47.53
2022-10-09T10:04:57.589Z,45.41
2022-10-09T10:07:40.545Z,45.87
2022-10-09T10:10:15.555Z,46.07
2022-10-09T10:12:57.668Z,44.89
2022-10-09T10:15:25.650Z,45.21
2022-10-09T10:18:06.375Z,44.46
2022-10-09T10:20:44.576Z,42.28
2022-10-09T10:23:35.591Z,44.53
2022-10-09T10:26:17.492Z,42.40
2022-10-09T10:29:19.041Z,41.84
2022-10-09T10:32:13.652Z,41.05
2022-10-09T10:34:48.357Z,40.33
2022-10-09T10:37:14.981Z,39.94
2022-10-09T10:39:51.570Z,39.42
2022-10-09T10:42:42.414Z,40.96
2022-10-09T10:45:19.428Z,42.46
2022-10-09T10:47:52.349Z,39.67
2022-10-09T10:50:20.793Z,39.90
2022-10-09T10:53:16.051Z,39.87
2022-10-09T10:55:55.540Z,38.13
2022-10-09T10:58:33.207Z,36.80
2022-10-09T11:01:19.233Z,34.48
2022-10-09T11:04:14.245Z,37.53
2022-10-09T11:07:13.568Z,36.81
2022-10-09T11:09:55.782Z,37.07
2022-10-09T11:12:47.861Z,38.05
2022-10-09T11:15:43.782Z,38.55
2022-10-09T11:18:34.568Z,39.14
2022-10-09T11:21:17.231Z,37.20
2022-10-09T11:24:26.706Z,39.70
2022-10-09T11:27:24.201Z,39.71
2022-10-09T11:29:59.870Z,40.48
2022-10-09T11:32:35.677Z,38.48
2022-10-09T11:35:12.813Z,38.21
2022-10-09T11:37:43.735Z,39.19
2022-10-09T11:40:24.478Z,39.09
2022-10-09T11:43:05.606Z,37.10
2022-10-09T11:45:51.039Z,37.06
2022-10-09T11:48:49.767Z,38.05
2022-10-09T11:51:23.248Z,36.64
2022-10-09T11:53:51.381Z,37.98
2022-10-09T11:56:40.666Z,38.37
2022-10-09T11:59:07.783Z,38.81
2022-10-09T12:01:37.890Z,36.49
2022-10-09T12:04:13.671Z,37.35
2022-10-09T12:06:53.544Z,36.57
2022-10-09T12:09:28.794Z,37.11
2022-10-09T12:12:08.554Z,36.61
2022-10-09T12:14:38.360Z,33.59
2022-10-09T12:17:29.390Z,34.41
2022-10-09T12:20:04.789Z,35.91
2022-10-09T12:22:37.633Z,34.65
2022-10-09T12:25:08.870Z,33.56
2022-10-09T12:27:39.579Z,33.89
2022-10-09T12:30:19.695Z,32.50
2022-10-09T12:32:53.210Z,33.67
2022-10-09T12:35:31.369Z,34.06
2022-10-09T12:37:57.942Z,32.47
2022-10-09T12:40:27.648Z,33.36
2022-10-09T12:42:56.201Z,32.36
2022-10-09T12:45:30.030Z,33.13
2022-10-09T12:48:16.568Z,33.62
2022-10-09T12:50:50.288Z,34.23
2022-10-09T12:53:20.111Z,34.60
2022-10-09T12:55:50.984Z,35.09
2022-10-09T12:58:24.190Z,35.35
2022-10-09T13:00:53.415Z,34.83
2022-10-09T13:03:40.343Z,35.24
2022-10-09T13:06:17.950Z,35.30
2022-10-09T13:08:54.258Z,35.64
2022-10-09T13:11:29.588Z,36.53
2022-10-09T13:13:56.774Z,35.61
2022-10-09T13:16:24.432Z,34.96
2022-10-09T13:18:59.384Z,34.48
2022-10-09T13:21:38.592Z,33.29
2022-10-09T13:24:15.093Z,35.04
2022-10-09T13:26:44.733Z,34.99
2022-10-09T13:29:12.062Z,33.97
2022-10-09T13:31:45.261Z,34.65
2022-10-09T13:34:16.207Z,33.91
2022-10-09T13:36:45.710Z,33.19
2022-10-09T13:39:16.226Z,33.51
2022-10-09T13:41:46.140Z,33.95
2022-10-09T13:44:14.979Z,32.89
2022-10-09T13:46:41.511Z,33.79
2022-10-09T13:49:08.913Z,32.62
2022-10-09T13:51:40.895Z,33.75
2022-10-09T13:54:07.556Z,34.14
2022-10-09T13:56:34.304Z,33.88
2022-10-09T13:59:00.894Z,34.80
2022-10-09T14:01:27.558Z,33.68
2022-10-09T14:03:54.376Z,34.05
2022-10-09T14:06:22.425Z,35.33
2022-10-09T14:08:50.053Z,34.24
2022-10-09T14:11:16.808Z,33.10
2022-10-09T14:13:45.505Z,33.87
2022-10-09T14:16:12.169Z,33.54
2022-10-09T14:18:41.505Z,33.81
2022-10-09T14:21:15.978Z,34.08
2022-10-09T14:23:47.747Z,35.26
2022-10-09T14:26:17.327Z,33.99
2022-10-09T14:28:46.653Z,35.29
2022-10-09T14:31:16.046Z,36.98
2022-10-09T14:33:46.369Z,35.91
2022-10-09T14:36:21.290Z,35.99
2022-10-09T14:38:49.000Z,37.85
2022-10-09T14:41:18.028Z,37.83
2022-10-09T14:43:48.792Z,36.68
2022-10-09T14:46:18.481Z,37.60
2022-10-09T14:48:48.631Z,38.64
2022-10-09T14:51:23.741Z,37.90
2022-10-09T14:53:54.165Z,36.97
2022-10-09T14:56:21.216Z,38.15
2022-10-09T14:58:48.053Z,38.77
2022-10-09T15:01:16.845Z,38.09
2022-10-09T15:03:46.095Z,39.21
2022-10-09T15:06:16.149Z,39.24
2022-10-09T15:08:45.476Z,39.45
2022-10-09T15:11:15.629Z,39.85
2022-10-09T15:13:42.292Z,40.39
2022-10-09T15:16:15.057Z,40.62
2022-10-09T15:18:42.370Z,40.70
2022-10-09T15:21:24.183Z,41.13
2022-10-09T15:23:54.007Z,41.58
2022-10-09T15:26:20.697Z,42.28
2022-10-09T15:28:47.315Z,42.94
2022-10-09T15:31:27.960Z,43.94
2022-10-09T15:33:57.400Z,44.35
2022-10-09T15:36:24.803Z,45.24
2022-10-09T15:38:53.641Z,45.87
2022-10-09T15:41:26.345Z,46.50
2022-10-09T15:47:16.961Z,48.69
2022-10-09T15:49:50.081Z,48.56
2022-10-09T15:52:19.447Z,50.37
2022-10-09T15:54:46.287Z,50.52
2022-10-09T15:57:12.789Z,51.16
2022-10-09T15:59:41.389Z,51.29
2022-10-09T16:02:09.832Z,51.40
2022-10-09T16:04:36.406Z,52.00
2022-10-09T16:07:02.936Z,52.28
2022-10-09T16:09:36.027Z,52.86
2022-10-09T16:12:02.794Z,53.78
2022-10-09T16:14:32.122Z,55.03
2022-10-09T16:16:58.998Z,55.50
2022-10-09T16:19:25.547Z,55.73
2022-10-09T16:21:52.148Z,55.39
2022-10-09T16:24:20.916Z,55.73
2022-10-09T16:26:47.490Z,56.26
2022-10-09T16:29:16.448Z,56.50
2022-10-09T16:31:42.984Z,56.80
2022-10-09T16:34:09.643Z,57.26
2022-10-09T16:36:36.195Z,57.48
2022-10-09T16:39:02.796Z,58.64
2022-10-09T16:41:29.587Z,59.13
2022-10-09T16:43:57.867Z,58.87
2022-10-09T16:46:30.317Z,59.69
2022-10-09T16:48:58.274Z,59.89
2022-10-09T16:51:30.495Z,60.39
2022-10-09T16:54:00.304Z,61.00
2022-10-09T16:56:33.194Z,60.82
2022-10-09T16:59:02.258Z,61.51
2022-10-09T17:01:29.060Z,62.08
2022-10-09T17:03:57.517Z,62.51
2022-10-09T17:06:25.509Z,62.85
2022-10-09T17:08:53.609Z,63.55
2022-10-09T17:11:20.436Z,64.14
2022-10-09T17:13:56.768Z,64.09
2022-10-09T17:16:26.680Z,68.36
2022-10-09T17:18:54.400Z,75.94
2022-10-09T17:21:21.383Z,69.01
2022-10-09T17:23:48.206Z,67.68
2022-10-09T17:26:19.814Z,67.34
2022-10-09T17:28:47.845Z,67.11
2022-10-09T17:31:20.828Z,66.99
2022-10-09T17:33:48.992Z,67.31
2022-10-09T17:36:21.893Z,67.66
2022-10-09T17:38:50.166Z,68.20
2022-10-09T17:41:19.080Z,68.54
2022-10-09T17:43:46.998Z,68.85
2022-10-09T17:46:15.102Z,68.80
2022-10-09T17:48:45.167Z,69.50
2022-10-09T17:51:17.889Z,70.18
2022-10-09T17:53:45.793Z,71.07
2022-10-09T17:56:12.837Z,71.47
2022-10-09T17:58:40.676Z,71.79
2022-10-09T18:01:09.086Z,72.96
2022-10-09T18:03:35.673Z,77.23
2022-10-09T18:06:06.146Z,73.10
2022-10-09T18:08:32.879Z,73.60
2022-10-09T18:11:01.709Z,73.03
2022-10-09T18:13:28.299Z,74.29
2022-10-09T18:15:55.221Z,74.71
2022-10-09T18:18:21.823Z,75.20
2022-10-09T18:20:50.492Z,76.05
2022-10-09T18:23:21.762Z,75.93
2022-10-09T18:25:49.787Z,76.66
2022-10-09T18:28:16.418Z,76.96
2022-10-09T18:30:46.028Z,78.13
2022-10-09T18:33:12.900Z,79.46
2022-10-09T18:35:40.230Z,79.11
2022-10-09T18:38:09.668Z,79.06
2022-10-09T18:40:45.377Z,79.91
2022-10-09T18:43:12.620Z,81.43
2022-10-09T18:45:45.724Z,82.11
2022-10-09T18:48:13.334Z,82.13
2022-10-09T18:50:40.065Z,81.68
2022-10-09T18:53:07.496Z,81.22
2022-10-09T18:55:34.508Z,82.23
2022-10-09T18:58:04.089Z,82.83
2022-10-09T19:00:31.367Z,84.02
2022-10-09T19:02:57.950Z,84.27
2022-10-09T19:05:24.545Z,84.28
2022-10-09T19:07:55.120Z,84.54
2022-10-09T19:10:25.045Z,84.95
2022-10-09T19:12:55.261Z,85.76
2022-10-09T19:15:26.482Z,86.97
2022-10-09T19:17:56.046Z,87.72
2022-10-09T19:20:25.733Z,88.64
2022-10-09T19:22:55.208Z,88.84
2022-10-09T19:25:24.878Z,90.04
2022-10-09T19:27:54.402Z,90.95
2022-10-09T19:30:28.432Z,91.55
2022-10-09T19:32:58.293Z,91.01
2022-10-09T19:35:24.784Z,91.88
2022-10-09T19:37:54.626Z,92.76
2022-10-09T19:40:24.236Z,92.85
2022-10-09T19:42:55.863Z,92.30
2022-10-09T19:45:22.775Z,90.93
2022-10-09T19:47:54.068Z,91.82
2022-10-09T19:50:24.369Z,92.08
2022-10-09T19:52:55.026Z,93.02
2022-10-09T19:55:33.747Z,93.48
2022-10-09T19:58:00.570Z,93.75
2022-10-09T20:00:27.695Z,93.30
2022-10-09T20:02:54.226Z,93.75
2022-10-09T20:05:23.712Z,95.18
2022-10-09T20:07:53.050Z,95.58
2022-10-09T20:10:20.192Z,94.50
2022-10-09T20:12:47.844Z,94.41
2022-10-09T20:15:14.702Z,93.14
2022-10-09T20:17:41.242Z,93.66
2022-10-09T20:20:08.297Z,96.17
2022-10-09T20:22:34.877Z,97.44
2022-10-09T20:25:01.362Z,100.00
2022-10-09T20:27:29.305Z,100.00
2022-10-09T20:29:55.968Z,100.00
2022-10-09T20:32:24.863Z,100.00
2022-10-09T20:34:54.483Z,100.00
2022-10-09T20:37:20.987Z,100.00
2022-10-09T20:39:47.748Z,100.00
2022-10-09T20:42:14.304Z,100.00
2022-10-09T20:44:42.370Z,100.00
2022-10-09T20:47:08.869Z,100.00
2022-10-09T20:49:35.366Z,100.00
2022-10-09T20:52:01.871Z,100.00
2022-10-09T20:54:30.396Z,100.00
2022-10-09T20:56:56.957Z,100.00
2022-10-09T20:59:25.897Z,100.00
2022-10-09T21:01:52.397Z,100.00
2022-10-09T21:04:18.885Z,100.00
2022-10-09T21:06:45.411Z,100.00
2022-10-09T21:09:12.087Z,100.00
2022-10-09T21:11:40.288Z,100.00
2022-10-09T21:14:07.311Z,100.00
2022-10-09T21:16:33.843Z,100.00
2022-10-09T21:19:02.791Z,100.00
2022-10-09T21:21:30.305Z,100.00
2022-10-09T21:23:58.439Z,100.00
2022-10-09T21:26:28.913Z,100.00
2022-10-09T21:28:59.902Z,100.00
2022-10-09T21:31:29.326Z,100.00
2022-10-09T21:33:57.330Z,100.00
2022-10-09T21:37:19.810Z,100.00
2022-10-09T21:39:36.276Z,100.00
2022-10-09T21:42:02.866Z,100.00
2022-10-09T21:44:30.085Z,100.00
2022-10-09T21:46:57.230Z,100.00
2022-10-09T21:49:27.864Z,100.00
2022-10-09T21:51:54.918Z,100.00
2022-10-09T21:54:22.053Z,100.00
2022-10-09T21:56:48.705Z,100.00
2022-10-09T21:59:15.255Z,100.00
2022-10-09T22:01:41.819Z,100.00
2022-10-09T22:04:08.611Z,100.00
2022-10-09T22:06:35.142Z,100.00
2022-10-09T22:09:01.665Z,100.00
2022-10-09T22:11:28.946Z,100.00
2022-10-09T22:13:55.974Z,100.00
2022-10-09T22:16:22.543Z,100.00
2022-10-09T22:18:49.025Z,100.00
2022-10-09T22:21:16.300Z,100.00
2022-10-09T22:23:43.017Z,100.00
2022-10-09T22:26:16.667Z,100.00
2022-10-09T22:28:44.200Z,100.00
2022-10-09T22:31:19.927Z,100.00
2022-10-09T22:33:54.012Z,100.00
2022-10-09T22:36:23.884Z,100.00
2022-10-09T22:38:54.079Z,100.00
2022-10-09T22:41:22.011Z,100.00
2022-10-09T22:43:51.955Z,100.00
2022-10-09T22:46:31.025Z,100.00
2022-10-09T22:48:57.732Z,100.00
2022-10-09T22:51:27.213Z,100.00
2022-10-09T22:53:54.995Z,100.00
2022-10-09T22:56:34.211Z,100.00
2022-10-09T22:59:03.801Z,100.00
2022-10-09T23:01:40.272Z,100.00
2022-10-09T23:04:10.433Z,100.00
2022-10-09T23:06:37.669Z,100.00
2022-10-09T23:09:07.059Z,100.00
2022-10-09T23:11:34.300Z,100.00
2022-10-09T23:14:01.403Z,100.00
2022-10-09T23:16:29.506Z,100.00
2022-10-09T23:18:58.034Z,100.00
2022-10-09T23:21:24.881Z,100.00
2022-10-09T23:23:52.913Z,100.00
2022-10-09T23:26:24.313Z,100.00
2022-10-09T23:28:53.017Z,100.00
2022-10-09T23:31:19.662Z,100.00
2022-10-09T23:33:46.327Z,100.00
2022-10-09T23:36:15.386Z,100.00
2022-10-09T23:38:41.974Z,100.00
2022-10-09T23:41:13.337Z,100.00
2022-10-09T23:43:40.900Z,100.00
2022-10-09T23:46:10.604Z,100.00
2022-10-09T23:48:37.481Z,100.00
2022-10-09T23:51:06.080Z,100.00
2022-10-09T23:53:35.358Z,100.00
2022-10-09T23:56:05.715Z,100.00
2022-10-09T23:58:32.234Z,100.00
